Corpus Christi International Airport
KCRP : now visible

Airfield :











YOU CAN JOIN US ON...

 
LOGIN :

Register | Disclaimer

   EN    FR    IT 

 









Legend :    VFR   Marginal VFR   IFR   Intensive IFR   Very Intensive IFR
Visi :
Ceiling :
>= 8 km
>= 3000ft
5 to 8 km
1000 to 3000 ft
1500m to 5 km
500 to 1000 ft
800 to 1500m
200 to 500 ft
< 800m
< 200 ft
Symbols :   Thunderstorms  Fog  Heavy snow  Heavy precipitations  Wind > 20 kt






- Airport Elevation : 44 ft
- IATA code : CRP


KCRP - Corpus Christi International

CURRENT METAR :
  • 251851Z 27010KT 10SM FEW027 SCT090 BKN110 BKN250 27/21 A2987 RMK AO2 SLP113 T02720211

EXPIRED METARs :
  • 251751Z 30009KT 10SM FEW007 FEW023 SCT095 BKN250 26/20 A2988 RMK AO2 SLP116 FU FEW007 60003 T02560200 10256 20189 51013
  • 251651Z 31010KT 10SM FEW015 SCT019 SCT140 BKN250 24/19 A2987 RMK AO2 SLP113 TCU DSNT SE S T02440189
  • 251551Z 31015G24KT 10SM SCT013 BKN016 BKN150 BKN250 22/19 A2986 RMK AO2 SLP110 CB DSNT S SW MOV E T02170189

TAF KCRP
Valid from the 25 at 18:00 until the 26 at 18:00 UTC


251738Z 2518/2618 02014KT P6SM SCT020
TEMPO 2519/2523 BKN020
FM260100 04008KT P6SM SKC
KZHU FIR / North America



MET'MAP, your aeronautical weather chart ! - Copyright ORBIFLY December 2007 - Disclaimer

ORBIFLY MET'MAP TEAM :

Programming & Development : Alexandra Zaïnal
Original concept : Baudouin d'Aumeries
Technical & hardware support : Manuel Goepfert
Assistance : Marc-Olivier Méhu

Contact : metmap@orbifly.com




SOURCES & CREDITS :

   NOAA       Earth
Advisory